University Buffalo, New York
Current Conditions -  °F | °C
As of 2:23 AM on Wednesday 22 Oct 2014 (Local Time) from KBUF Reporting Station
Overcast Overcast  
Wind Chill: 39°   Ceiling: 1100
Heat Index: 44°   Visibility: 10mi
Dew Point: 42°   Wind: 9mph
Humidity: 93%   Direction: 360°N
Pressure: 30.11"   Gusts: NA
Location:  42.9393°N, 78.8401°W
Report Text: KBUF 220623Z 36008KT 10SM SCT008 OVC011 07/06 A3011 RMK AO2 T00670056
Loading
Personal Weather Stations






























Interactive Weather Map New forecast layout! Learn more

10-Day Weather Forecast

Advertisements
Track Severe Weather on mobile